createdAt,value
2017-08-02T00:00:15.973Z,5.70
2017-08-02T00:02:43.448Z,6.03
2017-08-02T00:05:10.936Z,5.80
2017-08-02T00:07:38.386Z,6.00
2017-08-02T00:10:05.890Z,5.40
2017-08-02T00:12:33.382Z,6.07
2017-08-02T00:15:00.875Z,5.27
2017-08-02T00:17:28.333Z,5.73
2017-08-02T00:19:55.825Z,6.30
2017-08-02T00:22:23.280Z,6.57
2017-08-02T00:24:50.786Z,6.20
2017-08-02T00:27:18.241Z,6.20
2017-08-02T00:29:45.754Z,6.70
2017-08-02T00:32:13.236Z,7.23
2017-08-02T00:34:40.695Z,6.03
2017-08-02T00:37:08.186Z,6.17
2017-08-02T00:39:35.645Z,5.93
2017-08-02T00:42:03.128Z,6.20
2017-08-02T00:44:30.592Z,5.63
2017-08-02T00:46:58.072Z,6.57
2017-08-02T00:49:25.537Z,6.23
2017-08-02T00:51:53.023Z,6.70
2017-08-02T00:54:20.518Z,6.60
2017-08-02T00:56:47.981Z,6.17
2017-08-02T00:59:15.473Z,6.83
2017-08-02T01:01:42.944Z,5.23
2017-08-02T01:04:10.453Z,5.90
2017-08-02T01:06:37.897Z,6.07
2017-08-02T01:09:05.358Z,5.83
2017-08-02T01:11:33.012Z,5.20
2017-08-02T01:14:00.486Z,6.10
2017-08-02T01:16:27.944Z,6.27
2017-08-02T01:18:55.431Z,6.10
2017-08-02T01:21:22.885Z,6.20
2017-08-02T01:23:50.362Z,5.90
2017-08-02T01:26:17.858Z,5.93
2017-08-02T01:28:45.317Z,5.50
2017-08-02T01:31:12.820Z,5.47
2017-08-02T01:33:40.277Z,5.60
2017-08-02T01:36:07.765Z,5.40
2017-08-02T01:38:35.229Z,5.70
2017-08-02T01:41:02.751Z,5.30
2017-08-02T01:43:30.224Z,5.50
2017-08-02T01:45:57.674Z,6.10
2017-08-02T01:48:25.158Z,5.70
2017-08-02T01:50:52.614Z,6.33
2017-08-02T01:53:20.092Z,5.50
2017-08-02T01:55:47.553Z,6.13
2017-08-02T01:58:15.038Z,5.77
2017-08-02T02:00:43.336Z,6.23
2017-08-02T02:03:10.813Z,5.60
2017-08-02T02:05:38.268Z,5.30
2017-08-02T02:08:05.764Z,6.50
2017-08-02T02:10:33.213Z,5.57
2017-08-02T02:13:00.673Z,6.37
2017-08-02T02:15:28.162Z,5.83
2017-08-02T02:17:55.626Z,5.87
2017-08-02T02:20:23.118Z,6.63
2017-08-02T02:22:50.571Z,5.90
2017-08-02T02:25:18.057Z,6.13
2017-08-02T02:27:45.514Z,6.33
2017-08-02T02:30:12.993Z,5.70
2017-08-02T02:32:40.456Z,5.93
2017-08-02T02:35:07.936Z,6.50
2017-08-02T02:37:35.392Z,5.67
2017-08-02T02:40:02.868Z,6.57
2017-08-02T02:42:30.359Z,6.77
2017-08-02T02:44:57.818Z,6.10
2017-08-02T02:47:25.327Z,5.83
2017-08-02T02:49:52.803Z,6.03
2017-08-02T02:52:20.379Z,6.50
2017-08-02T02:54:47.835Z,6.43
2017-08-02T02:57:15.306Z,6.17
2017-08-02T02:59:42.750Z,6.60
2017-08-02T03:02:10.271Z,7.50
2017-08-02T03:04:37.727Z,6.80
2017-08-02T03:07:05.198Z,6.57
2017-08-02T03:09:32.687Z,6.30
2017-08-02T03:12:00.139Z,6.30
2017-08-02T03:14:27.635Z,6.90
2017-08-02T03:16:55.099Z,6.27
2017-08-02T03:19:22.576Z,7.30
2017-08-02T03:21:50.029Z,6.77
2017-08-02T03:24:17.526Z,7.20
2017-08-02T03:26:45.021Z,7.03
2017-08-02T03:29:12.494Z,6.50
2017-08-02T03:31:39.955Z,6.47
2017-08-02T03:34:07.447Z,6.13
2017-08-02T03:36:34.945Z,6.10
2017-08-02T03:39:02.399Z,5.90
2017-08-02T03:41:29.899Z,5.80
2017-08-02T03:43:58.065Z,6.67
2017-08-02T03:46:25.603Z,6.60
2017-08-02T03:48:53.043Z,6.23
2017-08-02T03:51:20.499Z,6.70
2017-08-02T03:53:47.993Z,5.90
2017-08-02T03:56:15.461Z,6.23
2017-08-02T03:58:42.950Z,5.93
2017-08-02T04:01:10.410Z,5.80
2017-08-02T04:03:37.879Z,5.60
2017-08-02T04:06:05.342Z,5.60
2017-08-02T04:08:32.927Z,5.80
2017-08-02T04:11:00.389Z,6.33
2017-08-02T04:13:27.843Z,5.43
2017-08-02T04:15:56.012Z,5.33
2017-08-02T04:18:23.495Z,5.53
2017-08-02T04:20:50.997Z,5.50
2017-08-02T04:23:18.490Z,5.77
2017-08-02T04:25:45.990Z,5.00
2017-08-02T04:28:13.455Z,4.93
2017-08-02T04:30:40.938Z,5.50
2017-08-02T04:33:08.395Z,5.40
2017-08-02T04:35:35.856Z,5.93
2017-08-02T04:38:03.384Z,5.77
2017-08-02T04:40:30.949Z,5.90
2017-08-02T04:42:58.453Z,6.20
2017-08-02T04:45:25.942Z,5.30
2017-08-02T04:47:53.427Z,5.53
2017-08-02T04:50:20.922Z,5.73
2017-08-02T04:52:48.442Z,5.90
2017-08-02T04:55:15.898Z,6.73
2017-08-02T04:57:43.546Z,6.13
2017-08-02T05:00:11.010Z,6.00
2017-08-02T05:02:38.467Z,6.07
2017-08-02T05:05:05.947Z,6.50
2017-08-02T05:07:33.415Z,8.40
2017-08-02T05:10:00.910Z,7.47
2017-08-02T05:12:28.389Z,6.73
2017-08-02T05:14:55.876Z,7.87
2017-08-02T05:17:23.335Z,7.17
2017-08-02T05:19:50.794Z,7.37
2017-08-02T05:22:18.274Z,7.50
2017-08-02T05:24:45.748Z,6.77
2017-08-02T05:27:13.230Z,6.97
2017-08-02T05:29:40.717Z,6.33
2017-08-02T05:32:08.199Z,6.80
2017-08-02T05:34:36.356Z,6.50
2017-08-02T05:37:03.872Z,7.33
2017-08-02T05:39:31.343Z,7.50
2017-08-02T05:41:58.827Z,9.70
2017-08-02T05:44:26.285Z,7.50
2017-08-02T05:46:53.766Z,8.10
2017-08-02T05:49:21.266Z,7.20
2017-08-02T05:51:48.746Z,8.30
2017-08-02T05:54:16.236Z,9.10
2017-08-02T05:56:43.688Z,8.20
2017-08-02T05:59:11.189Z,8.00
2017-08-02T06:01:38.660Z,8.57
2017-08-02T06:04:06.157Z,10.50
2017-08-02T06:06:33.618Z,8.17
2017-08-02T06:09:01.138Z,8.30
2017-08-02T06:11:28.596Z,7.73
2017-08-02T06:13:56.104Z,8.37
2017-08-02T06:16:23.597Z,8.87
2017-08-02T06:18:51.061Z,8.47
2017-08-02T06:21:18.564Z,9.10
2017-08-02T06:23:46.025Z,8.40
2017-08-02T06:26:13.562Z,8.20
2017-08-02T06:28:41.032Z,8.03
2017-08-02T06:31:08.554Z,9.60
2017-08-02T06:33:36.023Z,8.87
2017-08-02T06:36:03.506Z,9.47
2017-08-02T06:38:30.961Z,7.87
2017-08-02T06:40:58.700Z,8.00
2017-08-02T06:43:26.209Z,8.33
2017-08-02T06:45:53.723Z,8.40
2017-08-02T06:48:21.246Z,8.83
2017-08-02T06:50:48.762Z,9.30
2017-08-02T06:53:16.290Z,7.50
2017-08-02T06:55:43.928Z,6.93
2017-08-02T06:58:11.398Z,8.00
2017-08-02T07:00:38.950Z,7.27
2017-08-02T07:03:06.488Z,7.63
2017-08-02T07:05:34.011Z,6.20
2017-08-02T07:08:01.614Z,7.13
2017-08-02T07:10:29.068Z,6.90
2017-08-02T07:12:56.691Z,7.10
2017-08-02T07:15:24.188Z,6.60
2017-08-02T07:17:51.641Z,6.93
2017-08-02T07:20:19.231Z,6.20
2017-08-02T07:22:46.718Z,6.33
2017-08-02T07:25:14.268Z,5.93
2017-08-02T07:27:41.737Z,6.30
2017-08-02T07:30:09.244Z,7.10
2017-08-02T07:32:37.726Z,6.33
2017-08-02T07:35:05.304Z,6.00
2017-08-02T07:37:32.798Z,6.03
2017-08-02T07:40:00.302Z,7.10
2017-08-02T07:42:27.818Z,5.80
2017-08-02T07:44:55.338Z,7.30
2017-08-02T07:47:23.068Z,6.93
2017-08-02T07:49:50.565Z,6.70
2017-08-02T07:52:18.070Z,6.40
2017-08-02T07:54:45.528Z,6.27
2017-08-02T07:57:13.045Z,5.03
2017-08-02T07:59:40.769Z,4.93
2017-08-02T08:02:09.966Z,6.60
2017-08-02T08:04:37.458Z,5.10
2017-08-02T08:07:05.900Z,5.00
2017-08-02T08:09:33.390Z,4.27
2017-08-02T08:12:00.850Z,4.17
2017-08-02T08:14:28.368Z,3.60
2017-08-02T08:16:55.874Z,3.77
2017-08-02T08:19:23.415Z,3.53
2017-08-02T08:21:50.904Z,3.20
2017-08-02T08:24:18.382Z,3.90
2017-08-02T08:26:45.869Z,4.00
2017-08-02T08:29:13.366Z,3.43
2017-08-02T08:31:40.850Z,3.67
2017-08-02T08:34:08.328Z,4.10
2017-08-02T08:36:35.834Z,3.67
2017-08-02T08:39:03.348Z,4.30
2017-08-02T08:41:31.681Z,3.97
2017-08-02T08:43:59.211Z,3.87
2017-08-02T08:46:26.749Z,4.20
2017-08-02T08:48:54.255Z,3.80
2017-08-02T08:51:21.713Z,3.37
2017-08-02T08:53:49.216Z,4.00
2017-08-02T08:56:16.809Z,3.30
2017-08-02T08:58:44.427Z,5.27
2017-08-02T09:01:12.243Z,4.50
2017-08-02T09:03:39.730Z,3.30
2017-08-02T09:06:07.193Z,4.30
2017-08-02T09:08:34.717Z,3.83
2017-08-02T09:11:03.236Z,4.00
2017-08-02T09:13:30.733Z,3.80
2017-08-02T09:15:58.214Z,3.77
2017-08-02T09:18:25.737Z,3.90
2017-08-02T09:20:53.221Z,4.10
2017-08-02T09:23:20.703Z,3.57
2017-08-02T09:25:48.203Z,3.27
2017-08-02T09:28:15.796Z,3.40
2017-08-02T09:30:43.334Z,3.37
2017-08-02T09:33:11.446Z,3.30
2017-08-02T09:35:38.981Z,3.30
2017-08-02T09:38:07.158Z,3.80
2017-08-02T09:40:34.684Z,3.93
2017-08-02T09:43:02.255Z,3.23
2017-08-02T09:45:30.532Z,3.63
2017-08-02T09:47:58.036Z,3.20
2017-08-02T09:50:25.490Z,4.50
2017-08-02T09:52:52.992Z,3.90
2017-08-02T09:55:20.449Z,3.17
2017-08-02T09:57:48.413Z,3.80
2017-08-02T10:00:15.945Z,3.97
2017-08-02T10:02:43.471Z,3.17
2017-08-02T10:05:11.768Z,3.30
2017-08-02T10:07:39.863Z,5.20
2017-08-02T10:10:07.338Z,3.40
2017-08-02T10:12:34.858Z,3.23
2017-08-02T10:15:02.670Z,3.40
2017-08-02T10:17:30.125Z,2.80
2017-08-02T10:19:57.638Z,3.63
2017-08-02T10:22:25.159Z,3.13
2017-08-02T10:24:52.728Z,2.60
2017-08-02T10:27:20.976Z,2.83
2017-08-02T10:29:48.596Z,2.67
2017-08-02T10:32:17.205Z,2.90
2017-08-02T10:34:44.687Z,3.10
2017-08-02T10:37:12.166Z,3.20
2017-08-02T10:39:39.982Z,2.50
2017-08-02T10:42:09.017Z,3.00
2017-08-02T10:44:36.842Z,2.97
2017-08-02T10:47:04.359Z,2.90
2017-08-02T10:49:31.856Z,2.80
2017-08-02T10:51:59.680Z,2.63
2017-08-02T10:54:28.273Z,2.90
2017-08-02T10:56:55.825Z,2.50
2017-08-02T10:59:23.405Z,2.73
2017-08-02T11:01:50.911Z,3.03
2017-08-02T11:04:18.581Z,2.97
2017-08-02T11:06:47.041Z,2.60
2017-08-02T11:09:14.563Z,3.23
2017-08-02T11:11:42.148Z,2.80
2017-08-02T11:14:09.717Z,2.70
2017-08-02T11:16:37.246Z,2.50
2017-08-02T11:19:04.863Z,2.97
2017-08-02T11:21:35.497Z,2.60
2017-08-02T11:24:02.990Z,2.50
2017-08-02T11:26:30.476Z,2.50
2017-08-02T11:28:58.077Z,2.80
2017-08-02T11:31:25.533Z,2.50
2017-08-02T11:33:53.024Z,2.57
2017-08-02T11:36:20.545Z,2.40
2017-08-02T11:38:48.000Z,2.77
2017-08-02T11:41:15.499Z,2.53
2017-08-02T11:43:43.078Z,2.70
2017-08-02T11:46:10.542Z,2.50
2017-08-02T11:48:38.046Z,2.80
2017-08-02T11:51:05.527Z,2.50
2017-08-02T11:53:33.616Z,3.13
2017-08-02T11:56:01.472Z,2.83
2017-08-02T11:58:28.958Z,2.57
2017-08-02T12:00:56.458Z,2.63
2017-08-02T12:03:23.966Z,3.23
2017-08-02T12:05:51.450Z,2.57
2017-08-02T12:08:18.925Z,2.90
2017-08-02T12:10:46.433Z,2.77
2017-08-02T12:13:13.927Z,3.13
2017-08-02T12:15:41.415Z,3.07
2017-08-02T12:18:08.894Z,2.90
2017-08-02T12:20:36.388Z,2.70
2017-08-02T12:23:03.849Z,3.10
2017-08-02T12:25:31.321Z,3.10
2017-08-02T12:27:58.819Z,2.90
2017-08-02T12:30:26.271Z,3.30
2017-08-02T12:32:53.759Z,2.97
2017-08-02T12:35:21.234Z,3.73
2017-08-02T12:37:48.741Z,2.90
2017-08-02T12:40:16.820Z,3.30
2017-08-02T12:42:44.332Z,2.73
2017-08-02T12:45:11.790Z,3.17
2017-08-02T12:47:39.266Z,2.87
2017-08-02T12:50:06.765Z,2.97
2017-08-02T12:52:34.230Z,2.70
2017-08-02T12:55:01.717Z,2.93
2017-08-02T12:57:29.180Z,3.00
2017-08-02T12:59:56.658Z,3.37
2017-08-02T13:02:24.225Z,3.00
2017-08-02T13:04:51.775Z,2.40
2017-08-02T13:07:19.311Z,3.20
2017-08-02T13:09:46.789Z,3.10
2017-08-02T13:12:14.241Z,2.70
2017-08-02T13:14:41.756Z,2.80
2017-08-02T13:17:09.308Z,3.07
2017-08-02T13:19:36.792Z,3.10
2017-08-02T13:22:04.282Z,3.20
2017-08-02T13:24:31.757Z,3.00
2017-08-02T13:26:59.241Z,3.10
2017-08-02T13:29:26.759Z,3.40
2017-08-02T13:31:54.259Z,3.13
2017-08-02T13:34:21.710Z,3.03
2017-08-02T13:36:50.029Z,3.00
2017-08-02T13:39:17.595Z,3.33
2017-08-02T13:41:45.097Z,3.20
2017-08-02T13:44:12.718Z,2.83
2017-08-02T13:46:40.284Z,2.93
2017-08-02T13:49:08.680Z,3.10
2017-08-02T13:51:36.158Z,3.70
2017-08-02T13:54:04.392Z,3.80
2017-08-02T13:56:32.150Z,4.00
2017-08-02T13:58:59.681Z,3.40
2017-08-02T14:01:27.220Z,3.13
2017-08-02T14:03:54.724Z,2.90
2017-08-02T14:06:22.181Z,3.40
2017-08-02T14:08:49.790Z,4.03
2017-08-02T14:11:17.294Z,3.17
2017-08-02T14:13:44.762Z,3.10
2017-08-02T14:16:12.253Z,2.87
2017-08-02T14:18:39.710Z,3.20
2017-08-02T14:21:07.540Z,3.20
2017-08-02T14:23:34.999Z,2.93
2017-08-02T14:26:03.406Z,2.90
2017-08-02T14:28:30.881Z,3.17
2017-08-02T14:30:58.357Z,2.90
2017-08-02T14:33:25.899Z,3.10
2017-08-02T14:35:53.366Z,3.37
2017-08-02T14:38:20.899Z,2.53
2017-08-02T14:40:48.402Z,3.03
2017-08-02T14:43:17.014Z,2.93
2017-08-02T14:45:44.532Z,2.97
2017-08-02T14:48:12.054Z,3.10
2017-08-02T14:50:39.514Z,2.93
2017-08-02T14:53:07.080Z,2.90
2017-08-02T14:55:34.554Z,3.17
2017-08-02T14:58:02.278Z,3.60
2017-08-02T15:00:29.763Z,3.50
2017-08-02T15:02:57.230Z,3.20
2017-08-02T15:05:24.832Z,2.93
2017-08-02T15:07:52.307Z,2.80
2017-08-02T15:10:19.810Z,3.30
2017-08-02T15:12:47.303Z,2.57
2017-08-02T15:15:14.895Z,2.80
2017-08-02T15:17:42.384Z,3.13
2017-08-02T15:20:09.866Z,3.17
2017-08-02T15:22:37.350Z,4.50
2017-08-02T15:25:04.840Z,3.30
2017-08-02T15:27:32.318Z,3.00
2017-08-02T15:29:59.784Z,3.40
2017-08-02T15:32:27.280Z,2.93
2017-08-02T15:34:54.768Z,2.77
2017-08-02T15:37:22.349Z,3.27
2017-08-02T15:39:49.909Z,3.00
2017-08-02T15:42:17.396Z,2.83
2017-08-02T15:44:44.900Z,3.00
2017-08-02T15:47:12.941Z,3.07
2017-08-02T15:49:40.430Z,2.73
2017-08-02T15:52:07.940Z,3.20
2017-08-02T15:54:35.453Z,2.70
2017-08-02T15:57:02.977Z,3.00
2017-08-02T15:59:30.466Z,2.87
2017-08-02T16:01:57.926Z,2.90
2017-08-02T16:04:25.424Z,2.83
2017-08-02T16:06:52.936Z,2.90
2017-08-02T16:09:20.403Z,3.10
2017-08-02T16:11:47.900Z,3.37
2017-08-02T16:14:15.408Z,3.43
2017-08-02T16:16:42.897Z,3.07
2017-08-02T16:19:11.232Z,4.63
2017-08-02T16:21:38.723Z,3.20
2017-08-02T16:24:06.280Z,3.07
2017-08-02T16:26:33.809Z,3.30
2017-08-02T16:29:01.274Z,3.50
2017-08-02T16:31:28.783Z,3.50
2017-08-02T16:33:56.291Z,3.40
2017-08-02T16:36:23.775Z,3.20
2017-08-02T16:38:51.278Z,3.30
2017-08-02T16:41:18.802Z,2.70
2017-08-02T16:43:46.286Z,3.47
2017-08-02T16:46:13.835Z,3.27
2017-08-02T16:48:43.004Z,3.73
2017-08-02T16:51:10.472Z,3.00
2017-08-02T16:53:37.980Z,5.50
2017-08-02T16:56:05.446Z,3.10
2017-08-02T16:58:32.909Z,3.00
2017-08-02T17:01:00.542Z,3.73
2017-08-02T17:03:27.989Z,3.10
2017-08-02T17:05:55.492Z,3.67
2017-08-02T17:08:22.990Z,3.73
2017-08-02T17:10:50.585Z,4.00
2017-08-02T17:13:18.185Z,3.57
2017-08-02T17:15:46.463Z,4.27
2017-08-02T17:18:13.928Z,3.50
2017-08-02T17:20:41.422Z,3.60
2017-08-02T17:23:08.926Z,3.90
2017-08-02T17:25:36.426Z,4.00
2017-08-02T17:28:03.891Z,3.70
2017-08-02T17:30:31.490Z,4.33
2017-08-02T17:32:58.947Z,4.77
2017-08-02T17:35:26.455Z,4.50
2017-08-02T17:37:54.020Z,5.20
2017-08-02T17:40:21.519Z,4.63
2017-08-02T17:42:49.017Z,4.87
2017-08-02T17:45:16.554Z,8.30
2017-08-02T17:47:44.056Z,4.50
2017-08-02T17:50:11.571Z,5.93
2017-08-02T17:52:39.036Z,3.63
2017-08-02T17:55:06.535Z,4.67
2017-08-02T17:57:34.034Z,4.97
2017-08-02T18:00:01.649Z,6.93
2017-08-02T18:02:30.264Z,7.50
2017-08-02T18:04:57.756Z,6.40
2017-08-02T18:07:25.240Z,7.60
2017-08-02T18:09:52.730Z,7.23
2017-08-02T18:12:20.924Z,5.30
2017-08-02T18:14:52.961Z,5.57
2017-08-02T18:17:20.471Z,7.23
2017-08-02T18:19:47.940Z,8.30
2017-08-02T18:22:15.458Z,6.43
2017-08-02T18:24:42.932Z,6.50
2017-08-02T18:27:10.405Z,7.00
2017-08-02T18:29:37.927Z,5.20
2017-08-02T18:32:05.422Z,6.43
2017-08-02T18:34:32.894Z,4.67
2017-08-02T18:37:00.385Z,5.90
2017-08-02T18:39:27.895Z,5.67
2017-08-02T18:41:55.409Z,4.27
2017-08-02T18:44:22.892Z,4.37
2017-08-02T18:46:50.459Z,4.77
2017-08-02T18:49:18.280Z,6.60
2017-08-02T18:51:45.740Z,5.50
2017-08-02T18:54:13.239Z,5.53
2017-08-02T18:56:40.736Z,5.07
2017-08-02T18:59:08.193Z,4.70
2017-08-02T19:01:35.710Z,5.30
2017-08-02T19:04:03.947Z,6.17
2017-08-02T19:06:31.410Z,5.10
2017-08-02T19:08:58.882Z,5.77
2017-08-02T19:11:26.420Z,5.97
2017-08-02T19:13:53.887Z,4.70
2017-08-02T19:16:19.815Z,5.40
2017-08-02T19:18:45.711Z,5.10
2017-08-02T19:21:11.673Z,5.17
2017-08-02T19:23:37.602Z,4.97
2017-08-02T19:26:03.522Z,5.00
2017-08-02T19:28:29.559Z,5.50
2017-08-02T19:30:55.433Z,4.67
2017-08-02T19:33:22.174Z,5.47
2017-08-02T19:35:48.046Z,5.23
2017-08-02T19:38:13.932Z,4.93
2017-08-02T19:40:40.051Z,4.97
2017-08-02T19:43:05.940Z,5.13
2017-08-02T19:45:31.826Z,5.53
2017-08-02T19:47:57.706Z,4.90
2017-08-02T19:50:24.432Z,5.30
2017-08-02T19:52:50.330Z,5.60
2017-08-02T19:55:16.197Z,5.00
2017-08-02T19:57:42.050Z,6.20
2017-08-02T20:00:08.275Z,5.30
2017-08-02T20:02:34.185Z,5.00
2017-08-02T20:05:00.097Z,5.50
2017-08-02T20:07:26.001Z,5.90
2017-08-02T20:09:51.910Z,5.37
2017-08-02T20:12:17.811Z,6.10
2017-08-02T20:14:43.742Z,5.10
2017-08-02T20:17:09.647Z,5.33
2017-08-02T20:19:35.583Z,5.40
2017-08-02T20:22:01.445Z,5.60
2017-08-02T20:24:27.374Z,5.50
2017-08-02T20:26:53.255Z,4.97
2017-08-02T20:29:19.245Z,5.80
2017-08-02T20:31:45.223Z,5.00
2017-08-02T20:34:11.114Z,5.57
2017-08-02T20:36:36.998Z,5.00
2017-08-02T20:39:02.946Z,5.77
2017-08-02T20:41:29.132Z,5.30
2017-08-02T20:43:54.984Z,5.17
2017-08-02T20:46:20.816Z,5.80
2017-08-02T20:48:46.738Z,5.50
2017-08-02T20:51:12.635Z,5.77
2017-08-02T20:53:38.532Z,5.30
2017-08-02T20:56:04.377Z,5.30
2017-08-02T20:58:30.245Z,5.70
2017-08-02T21:00:56.160Z,6.00
2017-08-02T21:03:21.993Z,6.20
2017-08-02T21:05:47.881Z,5.60
2017-08-02T21:08:13.737Z,5.60
2017-08-02T21:10:39.696Z,5.90
2017-08-02T21:13:06.507Z,5.80
2017-08-02T21:15:32.365Z,5.13
2017-08-02T21:17:59.259Z,6.40
2017-08-02T21:20:25.141Z,5.57
2017-08-02T21:22:51.042Z,5.50
2017-08-02T21:25:16.933Z,5.90
2017-08-02T21:27:42.810Z,5.50
2017-08-02T21:30:08.671Z,5.70
2017-08-02T21:32:34.899Z,6.00
2017-08-02T21:35:00.771Z,6.13
2017-08-02T21:37:26.681Z,6.33
2017-08-02T21:39:52.626Z,5.27
2017-08-02T21:42:18.515Z,5.87
2017-08-02T21:44:44.433Z,5.87
2017-08-02T21:47:10.374Z,5.47
2017-08-02T21:49:36.255Z,7.30
2017-08-02T21:52:02.175Z,6.37
2017-08-02T21:54:28.145Z,5.80
2017-08-02T21:56:54.007Z,6.07
2017-08-02T21:59:19.924Z,5.90
2017-08-02T22:01:45.774Z,6.60
2017-08-02T22:04:11.650Z,5.97
2017-08-02T22:06:37.550Z,6.43
2017-08-02T22:09:03.463Z,6.70
2017-08-02T22:11:29.405Z,6.00
2017-08-02T22:13:55.692Z,6.00
2017-08-02T22:16:21.580Z,6.80
2017-08-02T22:18:47.434Z,6.77
2017-08-02T22:21:13.379Z,6.30
2017-08-02T22:23:39.230Z,6.70
2017-08-02T22:26:05.096Z,6.60
2017-08-02T22:28:30.950Z,6.60
2017-08-02T22:30:57.020Z,6.80
2017-08-02T22:33:22.899Z,6.40
2017-08-02T22:35:48.734Z,6.43
2017-08-02T22:38:14.606Z,6.90
2017-08-02T22:40:40.446Z,8.73
2017-08-02T22:43:06.327Z,7.97
2017-08-02T22:45:32.210Z,8.13
2017-08-02T22:47:58.053Z,7.37
2017-08-02T22:50:23.937Z,7.00
2017-08-02T22:52:49.798Z,6.70
2017-08-02T22:55:15.721Z,6.17
2017-08-02T22:57:41.562Z,6.50
2017-08-02T23:00:07.459Z,6.50
2017-08-02T23:02:33.305Z,6.33
2017-08-02T23:04:59.197Z,6.73
2017-08-02T23:07:25.236Z,7.30
2017-08-02T23:09:51.163Z,6.77
2017-08-02T23:12:17.066Z,6.80
2017-08-02T23:14:43.002Z,7.73
2017-08-02T23:17:08.913Z,7.37
2017-08-02T23:19:34.847Z,7.03
2017-08-02T23:22:00.715Z,6.70
2017-08-02T23:24:26.587Z,7.40
2017-08-02T23:26:52.485Z,7.27
2017-08-02T23:29:18.389Z,7.33
2017-08-02T23:31:44.331Z,7.50
2017-08-02T23:34:10.233Z,7.63
2017-08-02T23:36:37.533Z,7.20
2017-08-02T23:39:04.425Z,7.80
2017-08-02T23:41:30.278Z,7.10
2017-08-02T23:43:56.165Z,7.00
2017-08-02T23:46:22.008Z,7.10
2017-08-02T23:48:47.860Z,7.77
2017-08-02T23:51:13.745Z,7.73
2017-08-02T23:53:39.601Z,7.97
2017-08-02T23:56:05.476Z,7.50
2017-08-02T23:58:31.385Z,7.47
